sensor_id;sensor_type;location;lat;lon;timestamp;pressure;altitude;pressure_sealevel;temperature;humidity
73821;BME280;62150;43.582;1.456;2022-11-20T07:01:13;100357.69;;;3.30;100.00
73821;BME280;62150;43.582;1.456;2022-11-20T07:03:41;100355.09;;;3.35;100.00
73821;BME280;62150;43.582;1.456;2022-11-20T07:06:10;100365.09;;;3.58;100.00
73821;BME280;62150;43.582;1.456;2022-11-20T07:08:37;100366.09;;;3.40;100.00
73821;BME280;62150;43.582;1.456;2022-11-20T07:11:06;100374.34;;;3.71;100.00
73821;BME280;62150;43.582;1.456;2022-11-20T07:13:34;100367.75;;;3.46;100.00
73821;BME280;62150;43.582;1.456;2022-11-20T07:16:03;100371.81;;;3.69;100.00
73821;BME280;62150;43.582;1.456;2022-11-20T07:18:33;100375.41;;;3.38;100.00
73821;BME280;62150;43.582;1.456;2022-11-20T07:21:01;100378.13;;;3.05;100.00
73821;BME280;62150;43.582;1.456;2022-11-20T07:23:28;100388.00;;;3.49;100.00
73821;BME280;62150;43.582;1.456;2022-11-20T07:25:56;100388.84;;;3.52;100.00
73821;BME280;62150;43.582;1.456;2022-11-20T07:28:23;100381.13;;;3.69;100.00
73821;BME280;62150;43.582;1.456;2022-11-20T07:30:52;100392.16;;;3.65;100.00
73821;BME280;62150;43.582;1.456;2022-11-20T07:33:20;100383.91;;;3.31;100.00
73821;BME280;62150;43.582;1.456;2022-11-20T07:35:49;100392.34;;;3.36;100.00
73821;BME280;62150;43.582;1.456;2022-11-20T07:38:16;100391.28;;;3.69;100.00
73821;BME280;62150;43.582;1.456;2022-11-20T07:40:44;100395.47;;;3.75;100.00
73821;BME280;62150;43.582;1.456;2022-11-20T07:43:11;100398.06;;;3.68;100.00
73821;BME280;62150;43.582;1.456;2022-11-20T07:45:39;100397.25;;;3.60;100.00
73821;BME280;62150;43.582;1.456;2022-11-20T07:48:07;100392.16;;;3.66;100.00
73821;BME280;62150;43.582;1.456;2022-11-20T07:50:35;100395.50;;;3.73;100.00
73821;BME280;62150;43.582;1.456;2022-11-20T07:53:05;100405.50;;;3.90;100.00
73821;BME280;62150;43.582;1.456;2022-11-20T07:55:33;100409.38;;;4.35;100.00
73821;BME280;62150;43.582;1.456;2022-11-20T07:58:00;100405.28;;;4.17;100.00
73821;BME280;62150;43.582;1.456;2022-11-20T08:00:31;100408.72;;;4.15;100.00
73821;BME280;62150;43.582;1.456;2022-11-20T08:02:59;100404.50;;;4.14;100.00
73821;BME280;62150;43.582;1.456;2022-11-20T08:05:26;100406.06;;;4.24;100.00
73821;BME280;62150;43.582;1.456;2022-11-20T08:07:54;100413.59;;;4.37;100.00
73821;BME280;62150;43.582;1.456;2022-11-20T08:10:22;100414.41;;;4.40;100.00
73821;BME280;62150;43.582;1.456;2022-11-20T08:12:52;100416.22;;;4.27;100.00
73821;BME280;62150;43.582;1.456;2022-11-20T08:15:38;100418.59;;;4.47;100.00
73821;BME280;62150;43.582;1.456;2022-11-20T08:18:07;100418.63;;;4.44;100.00
73821;BME280;62150;43.582;1.456;2022-11-20T08:20:36;100420.41;;;4.35;100.00
73821;BME280;62150;43.582;1.456;2022-11-20T08:23:05;100424.56;;;4.44;100.00
73821;BME280;62150;43.582;1.456;2022-11-20T08:25:36;100426.28;;;4.41;100.00
73821;BME280;62150;43.582;1.456;2022-11-20T08:28:05;100428.75;;;4.50;100.00
73821;BME280;62150;43.582;1.456;2022-11-20T08:30:33;100433.09;;;4.38;100.00
73821;BME280;62150;43.582;1.456;2022-11-20T08:33:02;100441.53;;;4.42;100.00
73821;BME280;62150;43.582;1.456;2022-11-20T08:35:33;100443.94;;;4.54;100.00
73821;BME280;62150;43.582;1.456;2022-11-20T08:38:02;100444.69;;;4.64;100.00
73821;BME280;62150;43.582;1.456;2022-11-20T08:40:29;100444.41;;;4.90;100.00
73821;BME280;62150;43.582;1.456;2022-11-20T08:42:58;100448.84;;;4.74;100.00
73821;BME280;62150;43.582;1.456;2022-11-20T08:45:26;100448.78;;;4.82;100.00
73821;BME280;62150;43.582;1.456;2022-11-20T08:47:59;100438.44;;;4.92;100.00
73821;BME280;62150;43.582;1.456;2022-11-20T08:50:26;100448.59;;;4.95;100.00
73821;BME280;62150;43.582;1.456;2022-11-20T08:52:54;100456.53;;;4.68;100.00
73821;BME280;62150;43.582;1.456;2022-11-20T08:55:21;100461.38;;;4.91;100.00
73821;BME280;62150;43.582;1.456;2022-11-20T08:57:49;100470.03;;;4.78;100.00
73821;BME280;62150;43.582;1.456;2022-11-20T09:00:18;100470.06;;;4.75;100.00
73821;BME280;62150;43.582;1.456;2022-11-20T09:02:46;100475.06;;;4.84;100.00
73821;BME280;62150;43.582;1.456;2022-11-20T09:05:14;100483.09;;;5.21;100.00
73821;BME280;62150;43.582;1.456;2022-11-20T09:07:41;100488.28;;;5.16;100.00
73821;BME280;62150;43.582;1.456;2022-11-20T09:10:09;100476.47;;;5.09;100.00
73821;BME280;62150;43.582;1.456;2022-11-20T09:12:36;100479.81;;;5.14;100.00
73821;BME280;62150;43.582;1.456;2022-11-20T09:15:04;100490.56;;;5.36;100.00
73821;BME280;62150;43.582;1.456;2022-11-20T09:17:33;100499.91;;;5.35;100.00
73821;BME280;62150;43.582;1.456;2022-11-20T09:20:01;100497.34;;;5.38;100.00
73821;BME280;62150;43.582;1.456;2022-11-20T09:22:28;100499.91;;;5.37;100.00
73821;BME280;62150;43.582;1.456;2022-11-20T09:24:56;100503.97;;;5.52;100.00
73821;BME280;62150;43.582;1.456;2022-11-20T09:27:23;100495.38;;;5.57;100.00
73821;BME280;62150;43.582;1.456;2022-11-20T09:29:51;100491.88;;;5.67;100.00
73821;BME280;62150;43.582;1.456;2022-11-20T09:32:18;100501.34;;;5.58;100.00
73821;BME280;62150;43.582;1.456;2022-11-20T09:34:47;100503.00;;;5.59;100.00
73821;BME280;62150;43.582;1.456;2022-11-20T09:37:15;100494.50;;;5.60;100.00
73821;BME280;62150;43.582;1.456;2022-11-20T09:39:42;100479.31;;;5.54;100.00
73821;BME280;62150;43.582;1.456;2022-11-20T09:42:27;100478.28;;;5.67;100.00
73821;BME280;62150;43.582;1.456;2022-11-20T09:45:12;100467.91;;;5.79;100.00
73821;BME280;62150;43.582;1.456;2022-11-20T09:47:53;100473.81;;;5.83;100.00
73821;BME280;62150;43.582;1.456;2022-11-20T09:50:31;100456.03;;;5.78;100.00
73821;BME280;62150;43.582;1.456;2022-11-20T09:53:11;100454.41;;;5.74;100.00
73821;BME280;62150;43.582;1.456;2022-11-20T09:55:39;100449.28;;;5.76;100.00
73821;BME280;62150;43.582;1.456;2022-11-20T09:58:10;100447.59;;;5.73;100.00
73821;BME280;62150;43.582;1.456;2022-11-20T10:00:41;100433.25;;;5.66;100.00
73821;BME280;62150;43.582;1.456;2022-11-20T10:03:14;100428.38;;;5.52;100.00
73821;BME280;62150;43.582;1.456;2022-11-20T10:05:47;100430.66;;;5.69;100.00
73821;BME280;62150;43.582;1.456;2022-11-20T10:08:19;100432.16;;;5.85;100.00
73821;BME280;62150;43.582;1.456;2022-11-20T10:10:52;100437.94;;;5.95;100.00
73821;BME280;62150;43.582;1.456;2022-11-20T10:13:31;100447.28;;;5.96;100.00
73821;BME280;62150;43.582;1.456;2022-11-20T10:16:13;100435.34;;;5.99;100.00
73821;BME280;62150;43.582;1.456;2022-11-20T10:18:58;100444.53;;;6.10;100.00
73821;BME280;62150;43.582;1.456;2022-11-20T10:21:36;100450.31;;;6.21;100.00
73821;BME280;62150;43.582;1.456;2022-11-20T10:24:29;100450.28;;;6.22;100.00
73821;BME280;62150;43.582;1.456;2022-11-20T10:27:07;100454.38;;;6.31;100.00
73821;BME280;62150;43.582;1.456;2022-11-20T10:29:45;100448.38;;;6.33;100.00
73821;BME280;62150;43.582;1.456;2022-11-20T10:32:16;100456.75;;;6.42;100.00
73821;BME280;62150;43.582;1.456;2022-11-20T10:34:50;100452.28;;;6.56;100.00
73821;BME280;62150;43.582;1.456;2022-11-20T10:37:23;100439.31;;;6.65;100.00
73821;BME280;62150;43.582;1.456;2022-11-20T10:39:56;100434.91;;;6.75;100.00
73821;BME280;62150;43.582;1.456;2022-11-20T10:42:29;100431.25;;;6.88;100.00
73821;BME280;62150;43.582;1.456;2022-11-20T10:45:09;100422.47;;;7.01;100.00
73821;BME280;62150;43.582;1.456;2022-11-20T10:47:42;100409.56;;;7.07;100.00
73821;BME280;62150;43.582;1.456;2022-11-20T10:50:14;100412.69;;;7.21;100.00
73821;BME280;62150;43.582;1.456;2022-11-20T10:52:51;100404.69;;;7.36;100.00
73821;BME280;62150;43.582;1.456;2022-11-20T10:55:30;100397.81;;;7.38;100.00
73821;BME280;62150;43.582;1.456;2022-11-20T10:58:04;100391.91;;;7.36;100.00
73821;BME280;62150;43.582;1.456;2022-11-20T11:00:37;100385.28;;;7.65;100.00
73821;BME280;62150;43.582;1.456;2022-11-20T11:03:20;100372.88;;;7.85;100.00
73821;BME280;62150;43.582;1.456;2022-11-20T11:05:51;100366.94;;;7.85;100.00
73821;BME280;62150;43.582;1.456;2022-11-20T11:08:23;100359.09;;;7.91;100.00
73821;BME280;62150;43.582;1.456;2022-11-20T11:10:56;100351.63;;;7.83;100.00
73821;BME280;62150;43.582;1.456;2022-11-20T11:13:26;100351.75;;;8.11;100.00
73821;BME280;62150;43.582;1.456;2022-11-20T11:15:54;100347.97;;;8.26;100.00
73821;BME280;62150;43.582;1.456;2022-11-20T11:18:26;100345.09;;;8.38;100.00
73821;BME280;62150;43.582;1.456;2022-11-20T11:20:55;100335.78;;;8.35;100.00
73821;BME280;62150;43.582;1.456;2022-11-20T11:23:35;100336.78;;;8.62;100.00
73821;BME280;62150;43.582;1.456;2022-11-20T11:26:05;100328.63;;;8.78;100.00
73821;BME280;62150;43.582;1.456;2022-11-20T11:28:33;100332.16;;;9.03;100.00
73821;BME280;62150;43.582;1.456;2022-11-20T11:31:01;100326.56;;;8.90;100.00
73821;BME280;62150;43.582;1.456;2022-11-20T11:33:30;100314.38;;;9.26;100.00
73821;BME280;62150;43.582;1.456;2022-11-20T11:36:01;100305.44;;;9.66;100.00
73821;BME280;62150;43.582;1.456;2022-11-20T11:38:34;100299.97;;;9.22;100.00
73821;BME280;62150;43.582;1.456;2022-11-20T11:41:04;100285.44;;;9.49;100.00
73821;BME280;62150;43.582;1.456;2022-11-20T11:43:34;100294.28;;;9.67;100.00
73821;BME280;62150;43.582;1.456;2022-11-20T11:46:29;100278.94;;;9.90;100.00
73821;BME280;62150;43.582;1.456;2022-11-20T11:48:59;100267.25;;;10.31;100.00
73821;BME280;62150;43.582;1.456;2022-11-20T11:51:31;100266.41;;;10.06;100.00
73821;BME280;62150;43.582;1.456;2022-11-20T11:54:05;100260.00;;;10.18;100.00
73821;BME280;62150;43.582;1.456;2022-11-20T11:56:38;100254.97;;;10.15;100.00
73821;BME280;62150;43.582;1.456;2022-11-20T11:59:11;100259.81;;;10.24;100.00
73821;BME280;62150;43.582;1.456;2022-11-20T12:01:44;100261.72;;;10.42;100.00
73821;BME280;62150;43.582;1.456;2022-11-20T12:04:19;100259.78;;;10.25;100.00
73821;BME280;62150;43.582;1.456;2022-11-20T12:07:01;100253.13;;;10.43;100.00
73821;BME280;62150;43.582;1.456;2022-11-20T12:09:37;100251.06;;;10.29;100.00
73821;BME280;62150;43.582;1.456;2022-11-20T12:12:10;100249.56;;;10.24;100.00
73821;BME280;62150;43.582;1.456;2022-11-20T12:14:41;100241.72;;;10.50;100.00
73821;BME280;62150;43.582;1.456;2022-11-20T12:17:11;100233.19;;;10.73;100.00
73821;BME280;62150;43.582;1.456;2022-11-20T12:19:39;100227.91;;;10.76;100.00
73821;BME280;62150;43.582;1.456;2022-11-20T12:22:16;100226.16;;;10.55;100.00
73821;BME280;62150;43.582;1.456;2022-11-20T12:24:54;100228.72;;;10.77;100.00
73821;BME280;62150;43.582;1.456;2022-11-20T12:27:52;100219.84;;;11.07;100.00
73821;BME280;62150;43.582;1.456;2022-11-20T12:30:24;100222.22;;;10.90;100.00
73821;BME280;62150;43.582;1.456;2022-11-20T12:33:16;100228.72;;;10.55;100.00
73821;BME280;62150;43.582;1.456;2022-11-20T12:36:06;100222.97;;;10.71;100.00
73821;BME280;62150;43.582;1.456;2022-11-20T12:39:00;100216.56;;;11.03;100.00
73821;BME280;62150;43.582;1.456;2022-11-20T12:41:43;100211.06;;;10.91;100.00
73821;BME280;62150;43.582;1.456;2022-11-20T12:44:44;100208.91;;;11.02;100.00
73821;BME280;62150;43.582;1.456;2022-11-20T12:48:03;100197.56;;;11.07;100.00
73821;BME280;62150;43.582;1.456;2022-11-20T12:50:43;100209.69;;;11.04;100.00
73821;BME280;62150;43.582;1.456;2022-11-20T12:53:23;100207.91;;;11.06;100.00
73821;BME280;62150;43.582;1.456;2022-11-20T12:55:59;100218.34;;;11.01;100.00
73821;BME280;62150;43.582;1.456;2022-11-20T12:58:36;100210.47;;;11.06;100.00
73821;BME280;62150;43.582;1.456;2022-11-20T13:01:20;100209.19;;;11.16;100.00
73821;BME280;62150;43.582;1.456;2022-11-20T13:04:12;100213.63;;;10.91;100.00
73821;BME280;62150;43.582;1.456;2022-11-20T13:06:43;100221.53;;;10.41;100.00
73821;BME280;62150;43.582;1.456;2022-11-20T13:09:13;100226.44;;;10.24;100.00
73821;BME280;62150;43.582;1.456;2022-11-20T13:11:45;100233.03;;;10.06;100.00
73821;BME280;62150;43.582;1.456;2022-11-20T13:14:26;100237.72;;;9.95;100.00
73821;BME280;62150;43.582;1.456;2022-11-20T13:17:03;100249.13;;;9.86;100.00
73821;BME280;62150;43.582;1.456;2022-11-20T13:19:32;100250.81;;;9.87;100.00
73821;BME280;62150;43.582;1.456;2022-11-20T13:22:01;100256.47;;;9.97;100.00
73821;BME280;62150;43.582;1.456;2022-11-20T13:24:30;100252.81;;;9.79;100.00
73821;BME280;62150;43.582;1.456;2022-11-20T13:27:17;100256.47;;;9.72;100.00
73821;BME280;62150;43.582;1.456;2022-11-20T13:29:58;100256.59;;;9.69;100.00
73821;BME280;62150;43.582;1.456;2022-11-20T13:32:26;100258.31;;;9.68;100.00
73821;BME280;62150;43.582;1.456;2022-11-20T13:34:59;100250.66;;;9.67;100.00
73821;BME280;62150;43.582;1.456;2022-11-20T13:37:30;100244.22;;;9.80;100.00
73821;BME280;62150;43.582;1.456;2022-11-20T13:40:20;100261.72;;;9.69;100.00
73821;BME280;62150;43.582;1.456;2022-11-20T13:42:56;100253.78;;;9.75;100.00
73821;BME280;62150;43.582;1.456;2022-11-20T13:45:31;100257.94;;;9.79;100.00
73821;BME280;62150;43.582;1.456;2022-11-20T13:48:03;100250.13;;;9.82;100.00
73821;BME280;62150;43.582;1.456;2022-11-20T13:50:46;100246.00;;;10.03;100.00
73821;BME280;62150;43.582;1.456;2022-11-20T13:53:29;100248.94;;;9.92;100.00
73821;BME280;62150;43.582;1.456;2022-11-20T13:56:03;100247.16;;;9.94;100.00
73821;BME280;62150;43.582;1.456;2022-11-20T13:58:44;100250.72;;;9.90;100.00
73821;BME280;62150;43.582;1.456;2022-11-20T14:01:19;100243.81;;;9.92;100.00
73821;BME280;62150;43.582;1.456;2022-11-20T14:03:48;100233.66;;;10.13;100.00
73821;BME280;62150;43.582;1.456;2022-11-20T14:06:23;100228.47;;;10.14;100.00
73821;BME280;62150;43.582;1.456;2022-11-20T14:08:53;100237.72;;;10.43;100.00
73821;BME280;62150;43.582;1.456;2022-11-20T14:11:22;100234.03;;;10.50;100.00
73821;BME280;62150;43.582;1.456;2022-11-20T14:14:02;100234.91;;;10.49;100.00
73821;BME280;62150;43.582;1.456;2022-11-20T14:16:33;100234.59;;;10.58;100.00
73821;BME280;62150;43.582;1.456;2022-11-20T14:19:21;100236.22;;;10.61;100.00
73821;BME280;62150;43.582;1.456;2022-11-20T14:21:53;100235.91;;;10.68;100.00
73821;BME280;62150;43.582;1.456;2022-11-20T14:24:22;100236.75;;;10.91;100.00
73821;BME280;62150;43.582;1.456;2022-11-20T14:26:51;100233.28;;;10.92;100.00
73821;BME280;62150;43.582;1.456;2022-11-20T14:29:21;100239.13;;;11.39;100.00
73821;BME280;62150;43.582;1.456;2022-11-20T14:31:52;100222.97;;;11.35;100.00
73821;BME280;62150;43.582;1.456;2022-11-20T14:34:22;100228.19;;;11.54;100.00
73821;BME280;62150;43.582;1.456;2022-11-20T14:36:55;100210.97;;;11.97;100.00
73821;BME280;62150;43.582;1.456;2022-11-20T14:39:29;100199.69;;;12.18;100.00
73821;BME280;62150;43.582;1.456;2022-11-20T14:41:58;100196.91;;;12.04;100.00
73821;BME280;62150;43.582;1.456;2022-11-20T14:44:27;100187.84;;;11.95;100.00
73821;BME280;62150;43.582;1.456;2022-11-20T14:46:59;100190.81;;;12.06;100.00
73821;BME280;62150;43.582;1.456;2022-11-20T14:49:30;100187.72;;;12.17;100.00
73821;BME280;62150;43.582;1.456;2022-11-20T14:52:03;100189.97;;;12.25;100.00
73821;BME280;62150;43.582;1.456;2022-11-20T14:54:44;100197.19;;;12.17;100.00
73821;BME280;62150;43.582;1.456;2022-11-20T14:57:22;100195.25;;;12.03;100.00
73821;BME280;62150;43.582;1.456;2022-11-20T14:59:50;100191.06;;;12.00;100.00
73821;BME280;62150;43.582;1.456;2022-11-20T15:02:19;100179.78;;;12.03;100.00
73821;BME280;62150;43.582;1.456;2022-11-20T15:04:47;100187.09;;;11.93;100.00
73821;BME280;62150;43.582;1.456;2022-11-20T15:07:26;100188.69;;;11.96;100.00
73821;BME280;62150;43.582;1.456;2022-11-20T15:10:02;100198.47;;;11.88;100.00
73821;BME280;62150;43.582;1.456;2022-11-20T15:12:30;100206.13;;;11.89;100.00
73821;BME280;62150;43.582;1.456;2022-11-20T15:14:58;100206.91;;;11.91;100.00
73821;BME280;62150;43.582;1.456;2022-11-20T15:17:28;100212.38;;;12.04;100.00
73821;BME280;62150;43.582;1.456;2022-11-20T15:19:57;100223.31;;;11.89;100.00
73821;BME280;62150;43.582;1.456;2022-11-20T15:22:26;100227.63;;;11.88;100.00
73821;BME280;62150;43.582;1.456;2022-11-20T15:24:53;100227.63;;;11.88;100.00
73821;BME280;62150;43.582;1.456;2022-11-20T15:27:21;100218.31;;;11.86;100.00
73821;BME280;62150;43.582;1.456;2022-11-20T15:29:49;100236.38;;;11.84;100.00
73821;BME280;62150;43.582;1.456;2022-11-20T15:32:16;100231.81;;;11.91;100.00
73821;BME280;62150;43.582;1.456;2022-11-20T15:34:45;100237.34;;;11.82;100.00
73821;BME280;62150;43.582;1.456;2022-11-20T15:37:13;100235.03;;;11.75;100.00
73821;BME280;62150;43.582;1.456;2022-11-20T15:39:40;100239.25;;;11.78;100.00
73821;BME280;62150;43.582;1.456;2022-11-20T15:42:08;100245.13;;;11.80;100.00
73821;BME280;62150;43.582;1.456;2022-11-20T15:44:35;100250.16;;;11.83;100.00
73821;BME280;62150;43.582;1.456;2022-11-20T15:47:03;100261.22;;;11.85;100.00
73821;BME280;62150;43.582;1.456;2022-11-20T15:49:30;100261.66;;;11.74;100.00
73821;BME280;62150;43.582;1.456;2022-11-20T15:51:59;100266.75;;;11.76;100.00
73821;BME280;62150;43.582;1.456;2022-11-20T15:54:27;100253.00;;;11.77;100.00
73821;BME280;62150;43.582;1.456;2022-11-20T15:56:54;100275.44;;;11.73;100.00
73821;BME280;62150;43.582;1.456;2022-11-20T15:59:22;100276.91;;;11.79;100.00
73821;BME280;62150;43.582;1.456;2022-11-20T16:01:49;100277.94;;;11.75;100.00
73821;BME280;62150;43.582;1.456;2022-11-20T16:04:17;100272.03;;;11.73;100.00
73821;BME280;62150;43.582;1.456;2022-11-20T16:06:45;100277.94;;;11.75;100.00
73821;BME280;62150;43.582;1.456;2022-11-20T16:09:14;100269.09;;;11.60;100.00
73821;BME280;62150;43.582;1.456;2022-11-20T16:11:41;100274.13;;;11.63;100.00
73821;BME280;62150;43.582;1.456;2022-11-20T16:14:10;100270.72;;;11.63;100.00
73821;BME280;62150;43.582;1.456;2022-11-20T16:16:56;100274.00;;;11.66;100.00
73821;BME280;62150;43.582;1.456;2022-11-20T16:19:23;100273.94;;;11.68;100.00
73821;BME280;62150;43.582;1.456;2022-11-20T16:21:51;100277.78;;;11.58;100.00
73821;BME280;62150;43.582;1.456;2022-11-20T16:24:19;100282.28;;;11.53;100.00
73821;BME280;62150;43.582;1.456;2022-11-20T16:26:47;100280.44;;;11.56;100.00
73821;BME280;62150;43.582;1.456;2022-11-20T16:29:14;100282.75;;;11.62;100.00
73821;BME280;62150;43.582;1.456;2022-11-20T16:31:42;100294.00;;;11.60;100.00
73821;BME280;62150;43.582;1.456;2022-11-20T16:34:09;100298.31;;;11.59;100.00
73821;BME280;62150;43.582;1.456;2022-11-20T16:36:40;100305.06;;;11.62;100.00
73821;BME280;62150;43.582;1.456;2022-11-20T16:39:08;100296.56;;;11.60;100.00
73821;BME280;62150;43.582;1.456;2022-11-20T16:41:38;100295.03;;;11.56;100.00
73821;BME280;62150;43.582;1.456;2022-11-20T16:44:07;100295.03;;;11.56;100.00
73821;BME280;62150;43.582;1.456;2022-11-20T16:46:36;100284.78;;;11.54;100.00
73821;BME280;62150;43.582;1.456;2022-11-20T16:49:05;100294.25;;;11.54;100.00
73821;BME280;62150;43.582;1.456;2022-11-20T16:51:35;100308.13;;;11.50;100.00
73821;BME280;62150;43.582;1.456;2022-11-20T16:54:03;100307.66;;;11.62;100.00
73821;BME280;62150;43.582;1.456;2022-11-20T16:56:31;100306.81;;;11.61;100.00
73821;BME280;62150;43.582;1.456;2022-11-20T16:59:01;100300.09;;;11.57;100.00
73821;BME280;62150;43.582;1.456;2022-11-20T17:01:34;100298.25;;;11.61;100.00
73821;BME280;62150;43.582;1.456;2022-11-20T17:04:05;100302.56;;;11.60;100.00
73821;BME280;62150;43.582;1.456;2022-11-20T17:06:34;100301.66;;;11.61;100.00
73821;BME280;62150;43.582;1.456;2022-11-20T17:09:02;100308.59;;;11.59;100.00
73821;BME280;62150;43.582;1.456;2022-11-20T17:11:30;100308.13;;;11.50;100.00
73821;BME280;62150;43.582;1.456;2022-11-20T17:14:00;100313.47;;;11.45;100.00
73821;BME280;62150;43.582;1.456;2022-11-20T17:16:28;100320.03;;;11.52;100.00
73821;BME280;62150;43.582;1.456;2022-11-20T17:18:57;100323.00;;;11.43;100.00
73821;BME280;62150;43.582;1.456;2022-11-20T17:21:25;100332.31;;;11.46;100.00
73821;BME280;62150;43.582;1.456;2022-11-20T17:23:54;100339.84;;;11.50;100.00
73821;BME280;62150;43.582;1.456;2022-11-20T17:26:23;100327.16;;;11.46;100.00
73821;BME280;62150;43.582;1.456;2022-11-20T17:28:54;100338.22;;;11.48;100.00
73821;BME280;62150;43.582;1.456;2022-11-20T17:31:23;100338.50;;;11.41;100.00
73821;BME280;62150;43.582;1.456;2022-11-20T17:33:51;100344.66;;;11.37;100.00
73821;BME280;62150;43.582;1.456;2022-11-20T17:36:19;100353.16;;;11.39;100.00
73821;BME280;62150;43.582;1.456;2022-11-20T17:38:47;100371.94;;;11.41;100.00
73821;BME280;62150;43.582;1.456;2022-11-20T17:41:16;100380.66;;;11.37;100.00
73821;BME280;62150;43.582;1.456;2022-11-20T17:43:44;100382.00;;;11.24;100.00
73821;BME280;62150;43.582;1.456;2022-11-20T17:46:14;100392.13;;;11.07;100.00
73821;BME280;62150;43.582;1.456;2022-11-20T17:48:44;100390.53;;;11.03;100.00
73821;BME280;62150;43.582;1.456;2022-11-20T17:51:15;100394.84;;;11.02;100.00
73821;BME280;62150;43.582;1.456;2022-11-20T17:53:44;100398.19;;;11.04;100.00
73821;BME280;62150;43.582;1.456;2022-11-20T17:56:12;100397.25;;;11.07;100.00
73821;BME280;62150;43.582;1.456;2022-11-20T17:58:57;100407.41;;;11.10;100.00
73821;BME280;62150;43.582;1.456;2022-11-20T18:01:26;100425.66;;;11.04;100.00
73821;BME280;62150;43.582;1.456;2022-11-20T18:03:55;100417.38;;;10.96;100.00
73821;BME280;62150;43.582;1.456;2022-11-20T18:06:26;100438.97;;;10.90;100.00
73821;BME280;62150;43.582;1.456;2022-11-20T18:08:54;100432.09;;;10.91;100.00
73821;BME280;62150;43.582;1.456;2022-11-20T18:11:23;100432.94;;;10.91;100.00
73821;BME280;62150;43.582;1.456;2022-11-20T18:13:52;100443.28;;;10.90;100.00
73821;BME280;62150;43.582;1.456;2022-11-20T18:16:39;100442.44;;;10.89;100.00
73821;BME280;62150;43.582;1.456;2022-11-20T18:19:10;100448.59;;;10.85;100.00
73821;BME280;62150;43.582;1.456;2022-11-20T18:21:38;100454.56;;;10.86;100.00
73821;BME280;62150;43.582;1.456;2022-11-20T18:24:06;100452.03;;;10.84;100.00
73821;BME280;62150;43.582;1.456;2022-11-20T18:26:34;100458.06;;;10.83;100.00
73821;BME280;62150;43.582;1.456;2022-11-20T18:29:01;100466.69;;;10.82;100.00
73821;BME280;62150;43.582;1.456;2022-11-20T18:31:29;100468.41;;;10.82;100.00
73821;BME280;62150;43.582;1.456;2022-11-20T18:33:56;100467.41;;;10.86;100.00
73821;BME280;62150;43.582;1.456;2022-11-20T18:36:27;100469.97;;;10.86;100.00
73821;BME280;62150;43.582;1.456;2022-11-20T18:38:56;100465.00;;;10.81;100.00
73821;BME280;62150;43.582;1.456;2022-11-20T18:41:25;100470.28;;;10.77;100.00
73821;BME280;62150;43.582;1.456;2022-11-20T18:44:14;100473.09;;;10.70;100.00
73821;BME280;62150;43.582;1.456;2022-11-20T18:46:59;100480.13;;;10.65;100.00
73821;BME280;62150;43.582;1.456;2022-11-20T18:49:26;100482.78;;;10.62;100.00
73821;BME280;62150;43.582;1.456;2022-11-20T18:51:55;100486.31;;;10.60;100.00
73821;BME280;62150;43.582;1.456;2022-11-20T18:54:23;100478.69;;;10.57;100.00
73821;BME280;62150;43.582;1.456;2022-11-20T18:56:51;100477.06;;;10.54;100.00
73821;BME280;62150;43.582;1.456;2022-11-20T18:59:19;100483.16;;;10.52;100.00
73821;BME280;62150;43.582;1.456;2022-11-20T19:01:47;100498.72;;;10.47;100.00
73821;BME280;62150;43.582;1.456;2022-11-20T19:04:16;100495.34;;;10.45;100.00
73821;BME280;62150;43.582;1.456;2022-11-20T19:06:45;100497.22;;;10.40;100.00
73821;BME280;62150;43.582;1.456;2022-11-20T19:09:16;100499.22;;;10.32;100.00
73821;BME280;62150;43.582;1.456;2022-11-20T19:11:44;100497.59;;;10.29;100.00
73821;BME280;62150;43.582;1.456;2022-11-20T19:14:11;100501.03;;;10.28;100.00
73821;BME280;62150;43.582;1.456;2022-11-20T19:16:39;100498.56;;;10.25;100.00
73821;BME280;62150;43.582;1.456;2022-11-20T19:19:08;100508.09;;;10.22;100.00
73821;BME280;62150;43.582;1.456;2022-11-20T19:21:36;100512.41;;;10.21;100.00
73821;BME280;62150;43.582;1.456;2022-11-20T19:24:04;100515.00;;;10.20;100.00
73821;BME280;62150;43.582;1.456;2022-11-20T19:26:34;100521.94;;;10.16;100.00
73821;BME280;62150;43.582;1.456;2022-11-20T19:29:02;100516.09;;;10.11;100.00
73821;BME280;62150;43.582;1.456;2022-11-20T19:31:30;100524.69;;;10.10;100.00
73821;BME280;62150;43.582;1.456;2022-11-20T19:33:59;100532.53;;;10.05;100.00
73821;BME280;62150;43.582;1.456;2022-11-20T19:36:28;100539.59;;;9.99;100.00
73821;BME280;62150;43.582;1.456;2022-11-20T19:38:56;100532.13;;;9.91;100.00
73821;BME280;62150;43.582;1.456;2022-11-20T19:41:24;100531.50;;;9.83;100.00
73821;BME280;62150;43.582;1.456;2022-11-20T19:43:59;100535.88;;;9.80;100.00
73821;BME280;62150;43.582;1.456;2022-11-20T19:46:28;100536.81;;;9.77;100.00
73821;BME280;62150;43.582;1.456;2022-11-20T19:48:57;100539.28;;;9.80;100.00
73821;BME280;62150;43.582;1.456;2022-11-20T19:51:25;100552.13;;;9.80;100.00
73821;BME280;62150;43.582;1.456;2022-11-20T19:53:55;100553.22;;;9.71;100.00
73821;BME280;62150;43.582;1.456;2022-11-20T19:56:23;100560.03;;;9.72;100.00
73821;BME280;62150;43.582;1.456;2022-11-20T19:58:52;100560.97;;;9.70;100.00
73821;BME280;62150;43.582;1.456;2022-11-20T20:01:23;100552.28;;;9.74;100.00
73821;BME280;62150;43.582;1.456;2022-11-20T20:03:52;100558.41;;;9.70;100.00
73821;BME280;62150;43.582;1.456;2022-11-20T20:06:22;100571.41;;;9.64;100.00
73821;BME280;62150;43.582;1.456;2022-11-20T20:08:54;100572.84;;;9.72;100.00